Vinton, IA

4:55 PM CDT on April 25, 2017 (GMT -0500)
Vinton-Veterans Memorial

Weather History for KVTI - March, 2012

Change the Weather History Date:

Saturday, March 10, 2012

  Actual Average Record
Temperature  
Mean Temperature 50 °F -  
Max Temperature 66 °F 45 °F 68 °F (1967)
Min Temperature 33 °F 24 °F -6 °F (1984)
Degree Days  
Heating Degree Days 16    
Moisture  
Dew Point 23 °F    
Average Humidity 41    
Maximum Humidity 60    
Minimum Humidity 19    
Precipitation  
Precipitation 0.00 in - - ()
Sea Level Pressure  
Sea Level Pressure 30.21 in    
Wind  
Wind Speed 16 mph (South)    
Max Wind Speed 26 mph    
Max Gust Speed 34 mph    
Visibility 10 miles    
Events      
Averages and records for this station are not official NWS values.
T = Trace of Precipitation, MM = Missing Value Source: NWS Daily Summary

Daily Weather History Graph

Daily Weather History Graph

Search for Another Location

Airport or City:

Trip Planner

Search our weather history database for the weather conditions in past years. The results will help you decide how hot, cold, wet, or windy it might be!

Date:

Astronomy

Mar. 10, 2012 Rise Set
Actual Time 6:27 AM CST 6:09 PM CST
Civil Twilight 5:59 AM CST 6:37 PM CST
Nautical Twilight 5:27 AM CST 7:09 PM CST
Astronomical Twilight 4:54 AM CST 7:42 PM CST
Moon 9:27 PM CST (3/10) 7:18 AM CST (3/10)
Length of Visible Light 12h 37m
Length of Day
11h 41m
Waning Gibbous, 92% of the Moon is Illuminated
Mar 10
Waning Gibbous
Mar 14
Last Quarter
Mar 22
New
Mar 30
First Quarter
Apr 6
Full

Hourly Weather History & Observations

Time (CST) Temp. Windchill Dew Point Humidity Pressure Visibility Wind Dir Wind Speed Gust Speed Precip Events Conditions
12:15 AM 33.8 °F 24.3 °F 17.6 °F 52% 30.32 in 10.0 mi SSE 13.8 mph 18.4 mph N/A   Clear
12:35 AM 33.8 °F 24.3 °F 17.6 °F 52% 30.32 in 10.0 mi SSE 13.8 mph 17.3 mph N/A   Clear
12:55 AM 33.8 °F 25.3 °F 19.4 °F 56% 30.32 in 10.0 mi SSE 11.5 mph 17.3 mph N/A   Clear
1:15 AM 33.8 °F 24.3 °F 19.4 °F 56% 30.32 in 10.0 mi SSE 13.8 mph 19.6 mph N/A   Clear
1:35 AM 33.8 °F 23.9 °F 19.4 °F 56% 30.30 in 10.0 mi SSE 15.0 mph - N/A   Clear
1:55 AM 33.8 °F 24.3 °F 19.4 °F 56% 30.30 in 10.0 mi SSE 13.8 mph 18.4 mph N/A   Clear
2:15 AM 33.8 °F 23.5 °F 19.4 °F 56% 30.30 in 10.0 mi SSE 16.1 mph 20.7 mph N/A   Clear
2:35 AM 33.8 °F 23.9 °F 19.4 °F 56% 30.29 in 10.0 mi SSE 15.0 mph 20.7 mph N/A   Clear
2:55 AM 33.8 °F 23.9 °F 21.2 °F 60% 30.28 in 10.0 mi South 15.0 mph 21.9 mph N/A   Clear
3:15 AM 33.8 °F 23.5 °F 21.2 °F 60% 30.28 in 10.0 mi SSE 16.1 mph 21.9 mph N/A   Clear
3:35 AM 33.8 °F 24.3 °F 21.2 °F 60% 30.27 in 10.0 mi South 13.8 mph - N/A   Clear
3:55 AM 33.8 °F 23.9 °F 21.2 °F 60% 30.26 in 10.0 mi South 15.0 mph 20.7 mph N/A   Clear
4:15 AM 33.8 °F 24.3 °F 21.2 °F 60% 30.26 in 10.0 mi South 13.8 mph 19.6 mph N/A   Clear
4:35 AM 33.8 °F 24.8 °F 21.2 °F 60% 30.26 in 10.0 mi South 12.7 mph - N/A   Clear
4:55 AM 33.8 °F 23.9 °F 21.2 °F 60% 30.26 in 10.0 mi South 15.0 mph 19.6 mph N/A   Clear
5:15 AM 33.8 °F 24.3 °F 21.2 °F 60% 30.26 in 10.0 mi South 13.8 mph - N/A   Clear
5:35 AM 33.8 °F 24.3 °F 21.2 °F 60% 30.26 in 10.0 mi South 13.8 mph - N/A   Clear
5:55 AM 33.8 °F 24.3 °F 21.2 °F 60% 30.26 in 10.0 mi South 13.8 mph - N/A   Clear
6:15 AM 33.8 °F 23.5 °F 21.2 °F 60% 30.26 in 10.0 mi South 16.1 mph 20.7 mph N/A   Clear
6:55 AM 33.8 °F 23.9 °F 21.2 °F 60% 30.26 in 10.0 mi South 15.0 mph - N/A   Clear
7:15 AM 35.6 °F 27.5 °F 23.0 °F 60% 30.26 in 10.0 mi South 11.5 mph - N/A   Clear
7:35 AM 35.6 °F 26.2 °F 21.2 °F 56% 30.26 in 10.0 mi South 15.0 mph - N/A   Clear
7:55 AM 37.4 °F 27.8 °F 23.0 °F 56% 30.26 in 10.0 mi South 17.3 mph 25.3 mph N/A   Clear
8:15 AM 41.0 °F 32.5 °F 23.0 °F 49% 30.26 in 10.0 mi South 17.3 mph 25.3 mph N/A   Clear
8:35 AM 41.0 °F 32.5 °F 23.0 °F 49% 30.26 in 10.0 mi South 17.3 mph 23.0 mph N/A   Clear
8:55 AM 44.6 °F 37.2 °F 23.0 °F 43% 30.25 in 10.0 mi South 17.3 mph 25.3 mph N/A   Clear
9:15 AM 48.2 °F - 28.4 °F 46% 30.25 in 10.0 mi SSW 16.1 mph - N/A   Clear
9:35 AM 50.0 °F - 26.6 °F 40% 30.24 in 10.0 mi SSW 17.3 mph 21.9 mph N/A   Clear
9:55 AM 51.8 °F - 26.6 °F 38% 30.23 in 10.0 mi SSW 20.7 mph 26.5 mph N/A   Clear
10:15 AM 53.6 °F - 28.4 °F 38% 30.22 in 10.0 mi SSW 23.0 mph 28.8 mph N/A   Clear
10:35 AM 53.6 °F - 28.4 °F 38% 30.21 in 10.0 mi SSW 21.9 mph 29.9 mph N/A   Clear
10:55 AM 55.4 °F - 28.4 °F 36% 30.20 in 10.0 mi SSW 26.5 mph - N/A   Clear
11:15 AM 59.0 °F - 28.4 °F 31% 30.20 in 10.0 mi SSW 20.7 mph 34.5 mph N/A   Clear
11:35 AM 59.0 °F - 26.6 °F 29% 30.19 in 10.0 mi SSW 21.9 mph 34.5 mph N/A   Clear
11:55 AM 59.0 °F - 26.6 °F 29% 30.19 in 10.0 mi SW 20.7 mph 32.2 mph N/A   Clear
12:15 PM 60.8 °F - 26.6 °F 27% 30.19 in 10.0 mi SSW 21.9 mph 31.1 mph N/A   Clear
12:35 PM 60.8 °F - 26.6 °F 27% 30.18 in 10.0 mi SSW 19.6 mph 28.8 mph N/A   Clear
12:55 PM 60.8 °F - 26.6 °F 27% 30.17 in 10.0 mi SSW 25.3 mph 33.4 mph N/A   Clear
1:15 PM 62.6 °F - 24.8 °F 24% 30.17 in 10.0 mi SSW 18.4 mph 29.9 mph N/A   Clear
1:35 PM 62.6 °F - 24.8 °F 24% 30.15 in 10.0 mi SSW 20.7 mph 33.4 mph N/A   Clear
1:55 PM 62.6 °F - 26.6 °F 26% 30.15 in 10.0 mi SSW 21.9 mph 33.4 mph N/A   Clear
2:15 PM 64.4 °F - 26.6 °F 24% 30.14 in 10.0 mi SSW 21.9 mph 27.6 mph N/A   Clear
2:35 PM 66.2 °F - 24.8 °F 21% 30.13 in 10.0 mi SSW 19.6 mph 27.6 mph N/A   Clear
2:55 PM 66.2 °F - 24.8 °F 21% 30.12 in 10.0 mi SW 16.1 mph 26.5 mph N/A   Clear
3:15 PM 66.2 °F - 23.0 °F 19% 30.12 in 10.0 mi SSW 21.9 mph 26.5 mph N/A   Clear
3:35 PM 66.2 °F - 23.0 °F 19% 30.11 in 10.0 mi SW 21.9 mph 29.9 mph N/A   Clear
3:55 PM 66.2 °F - 23.0 °F 19% 30.10 in 10.0 mi SSW 20.7 mph 29.9 mph N/A   Clear
4:15 PM 66.2 °F - 23.0 °F 19% 30.10 in 10.0 mi SSW 19.6 mph 25.3 mph N/A   Clear
4:35 PM 64.4 °F - 23.0 °F 21% 30.10 in 10.0 mi SSW 18.4 mph 29.9 mph N/A   Clear
4:55 PM 64.4 °F - 23.0 °F 21% 30.09 in 10.0 mi SSW 15.0 mph 25.3 mph N/A   Clear
5:15 PM 62.6 °F - 23.0 °F 22% 30.09 in 10.0 mi SSW 15.0 mph 20.7 mph N/A   Clear
5:35 PM 60.8 °F - 23.0 °F 23% 30.09 in 10.0 mi SSW 16.1 mph 21.9 mph N/A   Clear
5:55 PM 59.0 °F - 23.0 °F 25% 30.09 in 10.0 mi SSW 13.8 mph - N/A   Clear
6:15 PM 57.2 °F - 26.6 °F 31% 30.09 in 10.0 mi South 9.2 mph - N/A   Clear
6:35 PM 55.4 °F - 28.4 °F 36% 30.09 in 10.0 mi South 10.4 mph - N/A   Clear
6:55 PM 53.6 °F - 28.4 °F 38% 30.09 in 10.0 mi South 9.2 mph - N/A   Clear
7:15 PM 53.6 °F - 30.2 °F 41% 30.09 in 10.0 mi South 10.4 mph - N/A   Clear
7:35 PM 51.8 °F - 28.4 °F 41% 30.10 in 10.0 mi South 12.7 mph - N/A   Clear
7:55 PM 51.8 °F - 30.2 °F 44% 30.10 in 10.0 mi South 11.5 mph - N/A   Clear
8:15 PM 50.0 °F - 30.2 °F 47% 30.11 in 10.0 mi South 11.5 mph - N/A   Clear
8:35 PM 50.0 °F - 30.2 °F 47% 30.11 in 10.0 mi South 8.1 mph - N/A   Clear
8:55 PM 50.0 °F - 30.2 °F 47% 30.12 in 10.0 mi South 9.2 mph - N/A   Clear
9:15 PM 50.0 °F - 32.0 °F 50% 30.12 in 10.0 mi South 9.2 mph - N/A   Clear
9:35 PM 50.0 °F - 32.0 °F 50% 30.12 in 10.0 mi South 9.2 mph - N/A   Clear
9:55 PM 50.0 °F - 32.0 °F 50% 30.13 in 10.0 mi South 9.2 mph - N/A   Clear
10:15 PM 50.0 °F - 32.0 °F 50% 30.13 in 10.0 mi South 10.4 mph - N/A   Clear
10:35 PM 50.0 °F - 32.0 °F 50% 30.13 in 10.0 mi South 11.5 mph - N/A   Clear
10:55 PM 50.0 °F - 32.0 °F 50% 30.13 in 10.0 mi South 11.5 mph - N/A   Clear
11:15 PM 50.0 °F - 32.0 °F 50% 30.13 in 10.0 mi South 8.1 mph - N/A   Clear
11:35 PM 46.4 °F 41.9 °F 30.2 °F 53% 30.13 in 10.0 mi South 9.2 mph - N/A   Clear
11:55 PM 50.0 °F - 32.0 °F 50% 30.13 in 10.0 mi South 9.2 mph - N/A   Clear